Randolph, Wisconsin
Current Conditions -  °F | °C
As of 6:55 PM on Saturday 20 Dec 2014 (Local Time) from KUNU Reporting Station
Haze Haze  
Wind Chill: 22°   Ceiling: 2700
Heat Index: 28°   Visibility: 5mi
Dew Point: 26°   Wind: 6mph
Humidity: 91%   Direction: 150°SSE
Pressure: 30.24"   Gusts: NA
Location:  43.54°N, 89°W
Report Text: KUNU 210055Z AUTO 15005KT 5SM BR BKN027 OVC033 M02/M03 A3024 RMK AO2 T10201033
Loading
Personal Weather Stations






























Interactive Weather Map New forecast layout! Learn more

10-Day Weather Forecast

Advertisements
Track Severe Weather on mobile